Point Fermin — WDE4178 — position and weather

sailwx.info

Track history (hours):
 
Tides and Currents Weather Stations Pressure Air Temp Water Temp Dewpoint Dewpoint Depression Visibility Wind Speed Wind Dir Waves Ship Positions

Point Fermin

Owner: Foss Maritime Company, Seattle, WA. More information available from US FCC via Universal Licensing System and Coast Guard Vessel Documentation Center.

Last reported at 2017-Dec-17 17:30 UTC. Time now 2017-Dec-17 17:49 UTC.
Position N 37°45' W 122°21'.

Length 32 m; draft 4.3 m.

Type: Towing. MMSI: 367349770.

Date/timePositionNaut miles runAvg speedWind from/ knotsBaromVisibWave heightAir tempDewpointWater temp
2017-Dec-17 17:30N 37°45' W 122°21'0 0.0
2017-Dec-17 17:00N 37°45' W 122°21'0 0.0
2017-Dec-17 16:30N 37°45' W 122°21'0 0.0
2017-Dec-17 16:00N 37°45' W 122°21'0 0.0
2017-Dec-17 15:30N 37°45' W 122°21'0 0.1
2017-Dec-17 15:01N 37°45' W 122°21'1 2.1
2017-Dec-17 14:30N 37°46' W 122°20'1 2.2
2017-Dec-17 14:00N 37°47' W 122°21'2 4.6
2017-Dec-17 13:30N 37°49' W 122°21'3 6.8
2017-Dec-17 13:00N 37°52' W 122°24'2 4.8
2017-Dec-17 12:30N 37°54' W 122°23'1 1.2
2017-Dec-17 12:00N 37°54' W 122°22'0 0.1
2017-Dec-17 11:29N 37°54' W 122°22'0 0.0
2017-Dec-17 10:53N 37°54' W 122°22'0 0.0
2017-Dec-17 10:29N 37°54' W 122°22'0 0.0
2017-Dec-17 09:59N 37°54' W 122°22'0 0.0
2017-Dec-17 09:29N 37°54' W 122°22'0 0.0
2017-Dec-17 08:56N 37°54' W 122°22'0 0.0
2017-Dec-17 08:29N 37°54' W 122°22'0 0.0
2017-Dec-17 07:59N 37°54' W 122°22'0 0.0
2017-Dec-17 07:29N 37°54' W 122°22'0 0.0
2017-Dec-17 06:59N 37°54' W 122°22'0 0.0
2017-Dec-17 06:29N 37°54' W 122°22'0 0.0
2017-Dec-17 05:59N 37°54' W 122°22'0 0.0
2017-Dec-17 05:29N 37°54' W 122°22'0 0.0
2017-Dec-17 04:59N 37°54' W 122°22'0 0.0
2017-Dec-17 04:29N 37°54' W 122°22'0 0.0
2017-Dec-17 03:56N 37°54' W 122°22'0 0.0
2017-Dec-17 03:29N 37°54' W 122°22'0 0.0
2017-Dec-17 02:59N 37°54' W 122°22'0 0.0
2017-Dec-17 02:26N 37°54' W 122°22'0 0.0
2017-Dec-17 01:56N 37°54' W 122°22'0 0.0
2017-Dec-17 01:29N 37°54' W 122°22'0 0.0
2017-Dec-17 00:59N 37°54' W 122°22'0 0.0
2017-Dec-17 00:29N 37°54' W 122°22'0 0.0
2017-Dec-16 23:59N 37°54' W 122°22'2 4.0
2017-Dec-16 23:28N 37°55' W 122°25'2 4.4
2017-Dec-16 23:00N 37°54' W 122°22'0 0.0
2017-Dec-16 22:30N 37°54' W 122°22'0 0.0
2017-Dec-16 22:00N 37°54' W 122°22'0 0.2
2017-Dec-16 21:28N 37°54' W 122°22'1 2.3
2017-Dec-16 21:00N 37°54' W 122°24'3 5.2
2017-Dec-16 20:30N 37°52' W 122°24'4 8.1
2017-Dec-16 20:01N 37°48' W 122°21'1 1.6
2017-Dec-16 19:30N 37°49' W 122°20'0 0.1
2017-Dec-16 19:00N 37°49' W 122°20'0 0.0
2017-Dec-16 18:30N 37°49' W 122°20'0 0.0
2017-Dec-16 18:00N 37°49' W 122°20'0 0.0
2017-Dec-16 17:30N 37°49' W 122°20'0 0.0
2017-Dec-16 17:00N 37°49' W 122°20'0 0.0
2017-Dec-16 16:30N 37°49' W 122°20'0 0.0
2017-Dec-16 16:00N 37°49' W 122°20'0 0.0
2017-Dec-16 15:27N 37°49' W 122°20'0 0.0
2017-Dec-16 15:00N 37°49' W 122°20'0 0.0
2017-Dec-16 14:30N 37°49' W 122°20'0 0.6
2017-Dec-16 14:01N 37°49' W 122°19'3 5.2
2017-Dec-16 13:30N 37°50' W 122°22'4 7.0
2017-Dec-16 13:00N 37°53' W 122°24'2 4.8
2017-Dec-16 12:30N 37°54' W 122°22'1 1.9
2017-Dec-16 12:00N 37°55' W 122°22'1 1.8
2017-Dec-16 11:29N 37°54' W 122°22'0 0.0
2017-Dec-16 10:59N 37°54' W 122°22'0 0.0
2017-Dec-16 10:29N 37°54' W 122°22'0 0.0
2017-Dec-16 09:59N 37°54' W 122°22'0 0.0
2017-Dec-16 09:29N 37°54' W 122°22'0 0.0
2017-Dec-16 08:59N 37°54' W 122°22'0 0.0
2017-Dec-16 08:29N 37°54' W 122°22'0 0.0
2017-Dec-16 07:59N 37°54' W 122°22'0 0.0
2017-Dec-16 07:29N 37°54' W 122°22'1 2.5
2017-Dec-16 07:01N 37°54' W 122°24'5 9.8
2017-Dec-16 06:31N 37°50' W 122°22'1 1.3
2017-Dec-16 06:00N 37°49' W 122°22'2 4.3
2017-Dec-16 05:31N 37°51' W 122°23'2 4.7
2017-Dec-16 05:00N 37°53' W 122°24'2 3.3
2017-Dec-16 04:30N 37°54' W 122°23'1 1.8
2017-Dec-16 04:00N 37°54' W 122°22'1 1.9
2017-Dec-16 03:30N 37°55' W 122°22'0 0.4
2017-Dec-16 03:00N 37°55' W 122°22'1 1.5
2017-Dec-16 02:28N 37°54' W 122°22'0 0.0
2017-Dec-16 01:58N 37°54' W 122°22'0 0.0
2017-Dec-16 01:25N 37°54' W 122°22'0 0.0
2017-Dec-16 00:59N 37°54' W 122°22'0 0.0
2017-Dec-16 00:28N 37°54' W 122°22'0 0.0
2017-Dec-15 23:58N 37°54' W 122°22'0 0.0
2017-Dec-15 23:25N 37°54' W 122°22'0 0.1
2017-Dec-15 22:58N 37°54' W 122°22'1 1.1
2017-Dec-15 22:31N 37°54' W 122°22'0 0.2
2017-Dec-15 22:00N 37°54' W 122°22'0 0.0
2017-Dec-15 21:30N 37°54' W 122°22'0 0.0
2017-Dec-15 21:01N 37°54' W 122°22'0 1.0
2017-Dec-15 20:30N 37°54' W 122°22'1 1.1
2017-Dec-15 20:00N 37°55' W 122°22'0 0.2
2017-Dec-15 19:30N 37°54' W 122°22'0 0.0
2017-Dec-15 19:00N 37°54' W 122°22'0 0.0
2017-Dec-15 18:30N 37°54' W 122°22'0 0.0
2017-Dec-15 18:00N 37°54' W 122°22'0 0.0
2017-Dec-15 17:30N 37°54' W 122°22'0 0.3
2017-Dec-15 17:00N 37°54' W 122°22'1 1.0
2017-Dec-15 16:28N 37°54' W 122°22'0 0.0
2017-Dec-15 15:55N 37°54' W 122°22'0 0.0
2017-Dec-15 15:28N 37°54' W 122°22'0 0.0
2017-Dec-15 14:58N 37°54' W 122°22'0 0.0
2017-Dec-15 14:28N 37°54' W 122°22'0 0.0
2017-Dec-15 13:58N 37°54' W 122°22'1 2.1
2017-Dec-15 13:31N 37°55' W 122°22'1 1.9
2017-Dec-15 13:00N 37°54' W 122°22'0 0.0
2017-Dec-15 12:30N 37°54' W 122°22'0 0.0
2017-Dec-15 12:00N 37°54' W 122°22'0 0.0
2017-Dec-15 11:30N 37°54' W 122°22'0 0.0
2017-Dec-15 11:00N 37°54' W 122°22'0 0.0
2017-Dec-15 10:30N 37°54' W 122°22'0 0.0
2017-Dec-15 10:00N 37°54' W 122°22'0 0.0
2017-Dec-15 09:30N 37°54' W 122°22'0 0.0
2017-Dec-15 09:01N 37°54' W 122°22'1 1.3
2017-Dec-15 08:30N 37°55' W 122°22'0 0.4
2017-Dec-15 08:00N 37°55' W 122°22'2 3.5
2017-Dec-15 07:31N 37°54' W 122°24'1 2.4
2017-Dec-15 07:00N 37°55' W 122°25'2 3.2
2017-Dec-15 06:31N 37°54' W 122°23'1 1.7
2017-Dec-15 06:00N 37°54' W 122°22'0 0.0
2017-Dec-15 05:30N 37°54' W 122°22'0 0.0
2017-Dec-15 05:01N 37°54' W 122°22'0 0.0
2017-Dec-15 04:30N 37°54' W 122°22'0 0.0
2017-Dec-15 04:00N 37°54' W 122°22'0 0.0
2017-Dec-15 02:31N 37°54' W 122°22'0 0.0
2017-Dec-15 01:01N 37°54' W 122°22'0 0.0
2017-Dec-15 00:30N 37°54' W 122°22'0 0.0
2017-Dec-14 18:30N 37°54' W 122°22'0 0.0
2017-Dec-14 18:00N 37°54' W 122°22'0 0.0
2017-Dec-14 17:30N 37°54' W 122°22'0 0.0
2017-Dec-14 16:57N 37°54' W 122°22'0 0.0
2017-Dec-14 16:27N 37°54' W 122°22'0 0.0
2017-Dec-14 16:00N 37°54' W 122°22'2 2.3
2017-Dec-14 15:01N 37°52' W 122°24'3 6.1
2017-Dec-14 14:30N 37°50' W 122°22'2 4.2
2017-Dec-14 14:00N 37°49' W 122°20'0 0.3
2017-Dec-14 13:30N 37°49' W 122°20'0 0.0
2017-Dec-14 13:00N 37°49' W 122°20'0 0.0
2017-Dec-14 12:30N 37°49' W 122°20'0 0.0
2017-Dec-14 12:00N 37°49' W 122°20'0 0.0
2017-Dec-14 11:30N 37°49' W 122°20'0 0.0
2017-Dec-14 11:00N 37°49' W 122°20'0 0.0
2017-Dec-14 10:30N 37°49' W 122°20'0 0.0
2017-Dec-14 10:00N 37°49' W 122°20'0 0.0
2017-Dec-14 09:30N 37°49' W 122°20'0 0.0
2017-Dec-14 09:00N 37°49' W 122°20'0 0.0
2017-Dec-14 08:30N 37°49' W 122°20'0 0.0
2017-Dec-14 08:00N 37°49' W 122°20'0 0.0
2017-Dec-14 07:30N 37°49' W 122°20'2 4.1
2017-Dec-14 07:00N 37°50' W 122°22'4 8.9
2017-Dec-14 06:30N 37°54' W 122°24'2 3.4
2017-Dec-14 06:00N 37°54' W 122°22'2 3.9
2017-Dec-14 05:30N 37°53' W 122°24'4 7.6
2017-Dec-14 05:00N 37°49' W 122°23'3 6.6
2017-Dec-14 04:30N 37°46' W 122°21'1 2.2
2017-Dec-14 04:01N 37°45' W 122°21'0 0.0
2017-Dec-14 03:30N 37°45' W 122°21'0 0.0
2017-Dec-14 02:58N 37°45' W 122°21'0 0.0
2017-Dec-14 02:28N 37°45' W 122°21'0 0.0
2017-Dec-14 01:58N 37°45' W 122°21'0 0.0
2017-Dec-14 01:28N 37°45' W 122°21'0 0.0
2017-Dec-14 00:58N 37°45' W 122°21'0 0.0
2017-Dec-14 00:28N 37°45' W 122°21'0 0.2
2017-Dec-13 23:58N 37°46' W 122°21'0 0.2
2017-Dec-13 23:28N 37°46' W 122°21'0 0.0
2017-Dec-13 22:59N 37°46' W 122°21'1 2.0
2017-Dec-13 22:30N 37°47' W 122°21'2 3.8
2017-Dec-13 22:01N 37°48' W 122°19'1 1.6
2017-Dec-13 21:29N 37°48' W 122°18'0 0.0
2017-Dec-13 20:59N 37°48' W 122°18'0 0.0
2017-Dec-13 20:29N 37°48' W 122°18'0 0.0
2017-Dec-13 19:59N 37°48' W 122°18'0 0.0
2017-Dec-13 19:29N 37°48' W 122°18'0 0.1
2017-Dec-13 18:59N 37°48' W 122°18'0 0.1
2017-Dec-13 18:29N 37°48' W 122°18'0 0.0
2017-Dec-13 17:59N 37°48' W 122°18'0 0.4
2017-Dec-13 17:31N 37°48' W 122°18'3 5.9
2017-Dec-13 17:00N 37°49' W 122°21'3 6.1
2017-Dec-13 16:31N 37°52' W 122°23'3 5.2
2017-Dec-13 16:00N 37°54' W 122°24'2 4.2
2017-Dec-13 15:30N 37°55' W 122°22'0 0.0
2017-Dec-13 15:00N 37°55' W 122°22'1 1.6
2017-Dec-13 14:30N 37°54' W 122°22'0 0.0
2017-Dec-13 14:00N 37°54' W 122°22'0 0.0
2017-Dec-13 13:27N 37°54' W 122°22'0 0.0
2017-Dec-13 13:00N 37°54' W 122°22'0 0.0
2017-Dec-13 12:30N 37°54' W 122°22'0 0.0
2017-Dec-13 12:00N 37°54' W 122°22'0 0.0
2017-Dec-13 11:30N 37°54' W 122°22'0 0.0
2017-Dec-13 11:00N 37°54' W 122°22'0 0.0
2017-Dec-13 10:30N 37°54' W 122°22'0 0.0
2017-Dec-13 10:00N 37°54' W 122°22'0 0.0
2017-Dec-13 09:30N 37°54' W 122°22'0 0.0
2017-Dec-13 09:00N 37°54' W 122°22'0 0.0
2017-Dec-13 08:31N 37°54' W 122°22'0 0.0
2017-Dec-13 08:01N 37°54' W 122°22'0 0.0
2017-Dec-13 07:30N 37°54' W 122°22'0 0.0
2017-Dec-13 07:00N 37°54' W 122°22'0 0.0
2017-Dec-13 06:30N 37°54' W 122°22'0 0.0
2017-Dec-13 06:00N 37°54' W 122°22'0 0.0
2017-Dec-13 05:30N 37°54' W 122°22'0 0.0
2017-Dec-13 05:00N 37°54' W 122°22'0 0.0
2017-Dec-13 04:30N 37°54' W 122°22'0 0.0
2017-Dec-13 04:00N 37°54' W 122°22'1 1.6
2017-Dec-13 03:30N 37°55' W 122°22'1 1.7
2017-Dec-13 03:00N 37°54' W 122°22'0 0.0
2017-Dec-13 02:30N 37°54' W 122°22'0 0.0
2017-Dec-13 02:00N 37°54' W 122°22'1 1.1
2017-Dec-13 01:30N 37°55' W 122°22'1 1.3
2017-Dec-13 00:54N 37°55' W 122°22'0 0.1
2017-Dec-13 00:30N 37°55' W 122°22'1 1.6
2017-Dec-12 23:58N 37°54' W 122°22'0 0.0
2017-Dec-12 23:22N 37°54' W 122°22'0 0.2
2017-Dec-12 23:00N 37°54' W 122°22'2 3.4
2017-Dec-12 22:30N 37°54' W 122°24'3 5.4
2017-Dec-12 22:00N 37°52' W 122°24'3 6.8
2017-Dec-12 21:30N 37°49' W 122°21'1 2.8
2017-Dec-12 20:59N 37°49' W 122°19'0 0.0
2017-Dec-12 20:31N 37°49' W 122°19'0 0.3
2017-Dec-12 20:00N 37°49' W 122°19'0 0.3
2017-Dec-12 19:30N 37°49' W 122°19'0 0.0
2017-Dec-12 19:00N 37°49' W 122°19'0 0.0
2017-Dec-12 18:30N 37°49' W 122°19'0 0.0
2017-Dec-12 18:00N 37°49' W 122°19'0 0.0
2017-Dec-12 17:30N 37°49' W 122°19'0 0.0
2017-Dec-12 16:54N 37°49' W 122°19'0 0.0
2017-Dec-12 16:30N 37°49' W 122°19'0 0.0
2017-Dec-12 16:00N 37°49' W 122°19'0 0.0
2017-Dec-12 15:30N 37°49' W 122°19'0 0.0
2017-Dec-12 15:00N 37°49' W 122°19'1 1.9
2017-Dec-12 14:31N 37°48' W 122°21'1 2.2
2017-Dec-12 14:00N 37°49' W 122°22'0 0.0
2017-Dec-12 13:30N 37°49' W 122°22'0 0.0
2017-Dec-12 13:00N 37°49' W 122°22'0 0.0
2017-Dec-12 12:30N 37°49' W 122°22'0 0.0
2017-Dec-12 12:00N 37°49' W 122°22'0 0.0
2017-Dec-12 11:30N 37°49' W 122°22'0 0.0
2017-Dec-12 11:00N 37°49' W 122°22'0 0.0
2017-Dec-12 10:30N 37°49' W 122°22'0 0.0
2017-Dec-12 10:00N 37°49' W 122°22'0 0.0
2017-Dec-12 09:27N 37°49' W 122°22'0 0.0
2017-Dec-12 09:00N 37°49' W 122°22'0 0.0
2017-Dec-12 08:27N 37°49' W 122°22'0 0.0
2017-Dec-12 08:00N 37°49' W 122°22'0 0.0
2017-Dec-12 07:30N 37°49' W 122°22'0 0.0
2017-Dec-12 07:00N 37°49' W 122°22'0 0.0
2017-Dec-12 06:30N 37°49' W 122°22'0 0.0
2017-Dec-12 06:00N 37°49' W 122°22'0 0.0
2017-Dec-12 05:30N 37°49' W 122°22'0 0.0
2017-Dec-12 05:00N 37°49' W 122°22'0 0.0
2017-Dec-12 04:30N 37°49' W 122°22'0 0.0
2017-Dec-12 04:00N 37°49' W 122°22'0 0.0
2017-Dec-12 03:30N 37°49' W 122°22'0 0.0
2017-Dec-12 03:00N 37°49' W 122°22'0 0.0
2017-Dec-12 02:30N 37°49' W 122°22'0 0.0
2017-Dec-12 02:00N 37°49' W 122°22'0 0.0
2017-Dec-12 01:30N 37°49' W 122°22'0 0.0
2017-Dec-12 00:57N 37°49' W 122°22'0 0.0
2017-Dec-12 00:30N 37°49' W 122°22'0 0.0
2017-Dec-12 00:00N 37°49' W 122°22'0 0.0
2017-Dec-11 23:30N 37°49' W 122°22'0 0.0
2017-Dec-11 23:00N 37°49' W 122°22'0 0.0
2017-Dec-11 22:30N 37°49' W 122°22'0 0.0
2017-Dec-11 22:00N 37°49' W 122°22'0 0.0
2017-Dec-11 21:21N 37°49' W 122°22'0 0.0
2017-Dec-11 21:00N 37°49' W 122°22'0 0.0
2017-Dec-11 20:30N 37°49' W 122°22'0 0.0
2017-Dec-11 20:00N 37°49' W 122°22'0 0.0
2017-Dec-11 19:30N 37°49' W 122°22'0 0.0
2017-Dec-11 19:00N 37°49' W 122°22'0 0.0
2017-Dec-11 18:30N 37°49' W 122°22'0 0.0
2017-Dec-11 18:00N 37°49' W 122°22'0 0.0
2017-Dec-11 17:30N 37°49' W 122°22'0 0.0
2017-Dec-11 17:00N 37°49' W 122°22'0 0.0
2017-Dec-11 16:30N 37°49' W 122°22'0 0.0
2017-Dec-11 16:00N 37°49' W 122°22'0 0.0
2017-Dec-11 15:30N 37°49' W 122°22'0 0.0
2017-Dec-11 15:00N 37°49' W 122°22'0 0.0
2017-Dec-11 14:30N 37°49' W 122°22'0 0.0
2017-Dec-11 14:00N 37°49' W 122°22'0 0.0
2017-Dec-11 13:30N 37°49' W 122°22'0 0.0
2017-Dec-11 13:00N 37°49' W 122°22'0 0.0
2017-Dec-11 12:30N 37°49' W 122°22'0 0.0
2017-Dec-11 12:00N 37°49' W 122°22'0 0.1
2017-Dec-11 11:31N 37°49' W 122°22'3 5.1
2017-Dec-11 11:01N 37°51' W 122°23'3 5.4
2017-Dec-11 10:31N 37°54' W 122°24'2 4.1
2017-Dec-11 10:01N 37°54' W 122°22'0 0.2
2017-Dec-11 09:30N 37°54' W 122°22'0 0.0
2017-Dec-11 09:00N 37°54' W 122°22'0 0.0
2017-Dec-11 08:30N 37°54' W 122°22'0 0.0
2017-Dec-11 08:00N 37°54' W 122°22'0 0.0
2017-Dec-11 07:30N 37°54' W 122°22'0 0.0
2017-Dec-11 07:00N 37°54' W 122°22'0 0.0
2017-Dec-11 06:30N 37°54' W 122°22'0 0.0
2017-Dec-11 06:01N 37°54' W 122°22'1 1.7
2017-Dec-11 05:31N 37°55' W 122°22'1 1.7
2017-Dec-11 05:00N 37°54' W 122°22'1 1.0
2017-Dec-11 04:29N 37°54' W 122°22'0 0.0
2017-Dec-11 03:59N 37°54' W 122°22'0 0.0
2017-Dec-11 03:29N 37°54' W 122°22'0 0.0
2017-Dec-11 02:59N 37°54' W 122°22'0 0.0
2017-Dec-11 02:29N 37°54' W 122°22'0 0.0
2017-Dec-11 01:59N 37°54' W 122°22'0 0.0
2017-Dec-11 01:29N 37°54' W 122°22'0 0.0
2017-Dec-11 00:59N 37°54' W 122°22'0 0.0
2017-Dec-11 00:29N 37°54' W 122°22'0 0.0
2017-Dec-10 23:59N 37°54' W 122°22'0 0.0
2017-Dec-10 23:29N 37°54' W 122°22'0 0.0
2017-Dec-10 22:59N 37°54' W 122°22'0 0.0
2017-Dec-10 22:23N 37°54' W 122°22'0 0.0
2017-Dec-10 22:00N 37°54' W 122°22'1 1.8
2017-Dec-10 21:30N 37°55' W 122°22'1 1.7
2017-Dec-10 21:00N 37°54' W 122°22'0 0.0
2017-Dec-10 20:30N 37°54' W 122°22'0 0.0
2017-Dec-10 20:00N 37°54' W 122°22'0 0.0
2017-Dec-10 19:30N 37°54' W 122°22'1 1.8
2017-Dec-10 19:00N 37°55' W 122°22'0 0.8
2017-Dec-10 18:30N 37°55' W 122°22'2 4.3
2017-Dec-10 18:00N 37°54' W 122°24'3 6.4
2017-Dec-10 17:30N 37°51' W 122°23'4 7.9
2017-Dec-10 17:00N 37°48' W 122°20'1 1.8
2017-Dec-10 16:29N 37°48' W 122°19'0 0.0
2017-Dec-10 15:59N 37°48' W 122°19'0 0.0
2017-Dec-10 15:29N 37°48' W 122°19'0 0.0
2017-Dec-10 14:59N 37°48' W 122°19'0 0.0
2017-Dec-10 14:29N 37°48' W 122°19'0 0.0
2017-Dec-10 13:59N 37°48' W 122°19'0 0.0
2017-Dec-10 13:29N 37°48' W 122°19'0 0.0
2017-Dec-10 12:59N 37°48' W 122°19'0 0.0
2017-Dec-10 12:29N 37°48' W 122°19'0 0.0
2017-Dec-10 11:59N 37°48' W 122°19'0 0.0
2017-Dec-10 11:29N 37°48' W 122°19'0 0.0
2017-Dec-10 10:59N 37°48' W 122°19'0 0.0
2017-Dec-10 10:29N 37°48' W 122°19'0 0.0
2017-Dec-10 09:59N 37°48' W 122°19'0 0.0
2017-Dec-10 09:29N 37°48' W 122°19'0 0.4
2017-Dec-10 09:01N 37°48' W 122°19'3 5.3
2017-Dec-10 08:30N 37°49' W 122°22'0 0.0
2017-Dec-10 08:00N 37°49' W 122°22'0 0.0
2017-Dec-10 07:27N 37°49' W 122°22'0 0.0
2017-Dec-10 07:00N 37°49' W 122°22'0 0.0
2017-Dec-10 06:24N 37°49' W 122°22'0 0.0
2017-Dec-10 06:00N 37°49' W 122°22'0 0.0
2017-Dec-10 05:24N 37°49' W 122°22'0 0.0
2017-Dec-10 05:00N 37°49' W 122°22'0 0.0
2017-Dec-10 04:30N 37°49' W 122°22'0 0.0
2017-Dec-10 03:57N 37°49' W 122°22'0 0.0
2017-Dec-10 03:30N 37°49' W 122°22'0 0.0
2017-Dec-10 02:57N 37°49' W 122°22'0 0.0
2017-Dec-10 02:27N 37°49' W 122°22'0 0.0
2017-Dec-10 01:57N 37°49' W 122°22'0 0.0
2017-Dec-10 01:30N 37°49' W 122°22'0 0.0
2017-Dec-10 01:00N 37°49' W 122°22'0 0.0
2017-Dec-10 00:30N 37°49' W 122°22'0 0.0
2017-Dec-09 23:57N 37°49' W 122°22'0 0.0
2017-Dec-09 23:27N 37°49' W 122°22'0 0.0
2017-Dec-09 23:00N 37°49' W 122°22'1 2.8
2017-Dec-09 22:30N 37°51' W 122°22'3 6.2
2017-Dec-09 22:00N 37°53' W 122°24'2 4.5
2017-Dec-09 21:30N 37°54' W 122°22'1 2.0
2017-Dec-09 21:00N 37°55' W 122°22'1 1.7
2017-Dec-09 20:29N 37°54' W 122°22'0 0.0
2017-Dec-09 19:59N 37°54' W 122°22'0 0.0
2017-Dec-09 19:29N 37°54' W 122°22'0 0.0
2017-Dec-09 18:59N 37°54' W 122°22'0 0.0
2017-Dec-09 18:29N 37°54' W 122°22'0 0.0
2017-Dec-09 17:59N 37°54' W 122°22'0 0.0
2017-Dec-09 17:29N 37°54' W 122°22'0 0.7
2017-Dec-09 17:01N 37°54' W 122°22'1 2.0
2017-Dec-09 16:30N 37°55' W 122°22'1 2.1
2017-Dec-09 16:00N 37°54' W 122°22'2 4.5
2017-Dec-09 15:31N 37°53' W 122°24'3 6.7
2017-Dec-09 15:01N 37°50' W 122°22'1 1.4
2017-Dec-09 14:29N 37°49' W 122°22'0 0.0
2017-Dec-09 13:59N 37°49' W 122°22'1 1.9
2017-Dec-09 13:30N 37°50' W 122°22'4 8.8
2017-Dec-09 13:01N 37°54' W 122°24'1 2.8
2017-Dec-09 12:30N 37°54' W 122°22'0 0.0
2017-Dec-09 11:55N 37°54' W 122°22'0 0.0
2017-Dec-09 11:28N 37°54' W 122°22'0 0.0
2017-Dec-09 10:58N 37°54' W 122°22'0 0.0
2017-Dec-09 10:28N 37°54' W 122°22'0 0.0
2017-Dec-09 09:58N 37°54' W 122°22'0 0.0
2017-Dec-09 09:28N 37°54' W 122°22'0 0.0
2017-Dec-09 08:58N 37°54' W 122°22'0 0.0
2017-Dec-09 08:28N 37°54' W 122°22'0 0.0
2017-Dec-09 07:58N 37°54' W 122°22'0 0.0
2017-Dec-09 07:28N 37°54' W 122°22'0 0.0
2017-Dec-09 06:58N 37°54' W 122°22'0 0.0
2017-Dec-09 06:28N 37°54' W 122°22'0 0.0
2017-Dec-09 05:58N 37°54' W 122°22'0 0.0
2017-Dec-09 05:28N 37°54' W 122°22'0 0.0
2017-Dec-09 04:58N 37°54' W 122°22'0 0.0
2017-Dec-09 04:28N 37°54' W 122°22'0 0.0
2017-Dec-09 03:55N 37°54' W 122°22'0 0.0
2017-Dec-09 03:28N 37°54' W 122°22'0 0.0
2017-Dec-09 02:58N 37°54' W 122°22'0 0.0
2017-Dec-09 02:28N 37°54' W 122°22'0 0.0
2017-Dec-09 01:58N 37°54' W 122°22'0 0.0
2017-Dec-09 01:28N 37°54' W 122°22'0 0.0
2017-Dec-09 00:58N 37°54' W 122°22'0 0.0
2017-Dec-09 00:28N 37°54' W 122°22'0 0.0
2017-Dec-08 23:58N 37°54' W 122°22'0 0.0
2017-Dec-08 23:29N 37°54' W 122°22'2 5.1
2017-Dec-08 23:01N 37°52' W 122°24'3 6.2
2017-Dec-08 22:28N 37°49' W 122°22'0 0.0
2017-Dec-08 21:55N 37°49' W 122°22'0 0.0
2017-Dec-08 21:28N 37°49' W 122°22'0 0.0
2017-Dec-08 20:55N 37°49' W 122°22'0 0.0
2017-Dec-08 20:30N 37°49' W 122°22'1 2.4
2017-Dec-08 20:00N 37°49' W 122°20'0 0.9
2017-Dec-08 19:28N 37°49' W 122°20'0 0.0
2017-Dec-08 18:58N 37°49' W 122°20'0 0.0
2017-Dec-08 18:28N 37°49' W 122°20'0 0.0
2017-Dec-08 17:58N 37°49' W 122°20'0 0.0
2017-Dec-08 17:28N 37°49' W 122°20'0 0.0
2017-Dec-08 16:55N 37°49' W 122°20'0 0.0
2017-Dec-08 16:28N 37°49' W 122°20'0 0.0
2017-Dec-08 15:58N 37°49' W 122°20'0 0.0
2017-Dec-08 15:28N 37°49' W 122°20'0 0.0
2017-Dec-08 15:01N 37°49' W 122°20'2 3.1
2017-Dec-08 14:31N 37°49' W 122°22'0 0.0
2017-Dec-08 13:58N 37°49' W 122°22'0 0.0
2017-Dec-08 13:28N 37°49' W 122°22'0 0.0
2017-Dec-08 12:58N 37°49' W 122°22'0 0.0
2017-Dec-08 12:28N 37°49' W 122°22'0 0.0
2017-Dec-08 11:58N 37°49' W 122°22'0 0.0
2017-Dec-08 11:28N 37°49' W 122°22'0 0.0
2017-Dec-08 10:58N 37°49' W 122°22'0 0.0
2017-Dec-08 10:28N 37°49' W 122°22'0 0.0
2017-Dec-08 09:58N 37°49' W 122°22'0 0.0
2017-Dec-08 09:28N 37°49' W 122°22'0 0.0
2017-Dec-08 08:58N 37°49' W 122°22'0 0.0
2017-Dec-08 08:28N 37°49' W 122°22'0 0.0
2017-Dec-08 07:58N 37°49' W 122°22'0 0.0
2017-Dec-08 07:28N 37°49' W 122°22'0 0.0
2017-Dec-08 06:58N 37°49' W 122°22'0 0.0
2017-Dec-08 06:28N 37°49' W 122°22'0 0.0
2017-Dec-08 05:58N 37°49' W 122°22'0 0.0
2017-Dec-08 05:28N 37°49' W 122°22'0 0.0
2017-Dec-08 04:58N 37°49' W 122°22'0 0.0
2017-Dec-08 04:28N 37°49' W 122°22'0 0.0
2017-Dec-08 03:58N 37°49' W 122°22'0 0.0
2017-Dec-08 03:28N 37°49' W 122°22'0 0.0
2017-Dec-08 02:58N 37°49' W 122°22'0 0.0
2017-Dec-08 02:28N 37°49' W 122°22'0 0.0
2017-Dec-08 01:58N 37°49' W 122°22'0 0.0
2017-Dec-08 01:28N 37°49' W 122°22'0 0.0
2017-Dec-08 00:58N 37°49' W 122°22'0 0.0
2017-Dec-08 00:28N 37°49' W 122°22'0 0.0
2017-Dec-07 23:58N 37°49' W 122°22'0 0.0
2017-Dec-07 23:28N 37°49' W 122°22'0 0.0
2017-Dec-07 22:58N 37°49' W 122°22'0 0.0
2017-Dec-07 22:28N 37°49' W 122°22'1 1.3
2017-Dec-07 22:00N 37°49' W 122°21'1 2.2
2017-Dec-07 21:30N 37°49' W 122°20'0 0.1
2017-Dec-07 20:57N 37°49' W 122°20'0 0.0
2017-Dec-07 20:30N 37°49' W 122°20'0 0.1
2017-Dec-07 20:00N 37°49' W 122°20'0 0.0
2017-Dec-07 19:30N 37°49' W 122°20'0 0.0
2017-Dec-07 19:00N 37°49' W 122°20'0 0.0
2017-Dec-07 18:30N 37°49' W 122°20'0 0.0
2017-Dec-07 17:57N 37°49' W 122°20'0 0.0
2017-Dec-07 17:30N 37°49' W 122°20'  
Track history (hours):
 
Tides and Currents Weather Stations Pressure Air Temp Water Temp Dewpoint Dewpoint Depression Visibility Wind Speed Wind Dir Waves Ship Positions

Point Fermin

Owner: Foss Maritime Company, Seattle, WA. More information available from US FCC via Universal Licensing System and Coast Guard Vessel Documentation Center.

Last reported at 2017-Dec-17 17:30 UTC. Time now 2017-Dec-17 17:49 UTC.
Position N 37°45' W 122°21'.

Length 32 m; draft 4.3 m.

Type: Towing. MMSI: 367349770.

Date/timePositionNaut miles runAvg speedWind from/ knotsBaromVisibWave heightAir tempDewpointWater temp
2017-Dec-17 17:30N 37°45' W 122°21'0 0.0
2017-Dec-17 17:00N 37°45' W 122°21'0 0.0
2017-Dec-17 16:30N 37°45' W 122°21'0 0.0
2017-Dec-17 16:00N 37°45' W 122°21'0 0.0
2017-Dec-17 15:30N 37°45' W 122°21'0 0.1
2017-Dec-17 15:01N 37°45' W 122°21'1 2.1
2017-Dec-17 14:30N 37°46' W 122°20'1 2.2
2017-Dec-17 14:00N 37°47' W 122°21'2 4.6
2017-Dec-17 13:30N 37°49' W 122°21'3 6.8
2017-Dec-17 13:00N 37°52' W 122°24'2 4.8
2017-Dec-17 12:30N 37°54' W 122°23'1 1.2
2017-Dec-17 12:00N 37°54' W 122°22'0 0.1
2017-Dec-17 11:29N 37°54' W 122°22'0 0.0
2017-Dec-17 10:53N 37°54' W 122°22'0 0.0
2017-Dec-17 10:29N 37°54' W 122°22'0 0.0
2017-Dec-17 09:59N 37°54' W 122°22'0 0.0
2017-Dec-17 09:29N 37°54' W 122°22'0 0.0
2017-Dec-17 08:56N 37°54' W 122°22'0 0.0
2017-Dec-17 08:29N 37°54' W 122°22'0 0.0
2017-Dec-17 07:59N 37°54' W 122°22'0 0.0
2017-Dec-17 07:29N 37°54' W 122°22'0 0.0
2017-Dec-17 06:59N 37°54' W 122°22'0 0.0
2017-Dec-17 06:29N 37°54' W 122°22'0 0.0
2017-Dec-17 05:59N 37°54' W 122°22'0 0.0
2017-Dec-17 05:29N 37°54' W 122°22'0 0.0
2017-Dec-17 04:59N 37°54' W 122°22'0 0.0
2017-Dec-17 04:29N 37°54' W 122°22'0 0.0
2017-Dec-17 03:56N 37°54' W 122°22'0 0.0
2017-Dec-17 03:29N 37°54' W 122°22'0 0.0
2017-Dec-17 02:59N 37°54' W 122°22'0 0.0
2017-Dec-17 02:26N 37°54' W 122°22'0 0.0
2017-Dec-17 01:56N 37°54' W 122°22'0 0.0
2017-Dec-17 01:29N 37°54' W 122°22'0 0.0
2017-Dec-17 00:59N 37°54' W 122°22'0 0.0
2017-Dec-17 00:29N 37°54' W 122°22'0 0.0
2017-Dec-16 23:59N 37°54' W 122°22'2 4.0
2017-Dec-16 23:28N 37°55' W 122°25'2 4.4
2017-Dec-16 23:00N 37°54' W 122°22'0 0.0
2017-Dec-16 22:30N 37°54' W 122°22'0 0.0
2017-Dec-16 22:00N 37°54' W 122°22'0 0.2
2017-Dec-16 21:28N 37°54' W 122°22'1 2.3
2017-Dec-16 21:00N 37°54' W 122°24'3 5.2
2017-Dec-16 20:30N 37°52' W 122°24'4 8.1
2017-Dec-16 20:01N 37°48' W 122°21'1 1.6
2017-Dec-16 19:30N 37°49' W 122°20'0 0.1
2017-Dec-16 19:00N 37°49' W 122°20'0 0.0
2017-Dec-16 18:30N 37°49' W 122°20'0 0.0
2017-Dec-16 18:00N 37°49' W 122°20'0 0.0
2017-Dec-16 17:30N 37°49' W 122°20'0 0.0
2017-Dec-16 17:00N 37°49' W 122°20'0 0.0
2017-Dec-16 16:30N 37°49' W 122°20'0 0.0
2017-Dec-16 16:00N 37°49' W 122°20'0 0.0
2017-Dec-16 15:27N 37°49' W 122°20'0 0.0
2017-Dec-16 15:00N 37°49' W 122°20'0 0.0
2017-Dec-16 14:30N 37°49' W 122°20'0 0.6
2017-Dec-16 14:01N 37°49' W 122°19'3 5.2
2017-Dec-16 13:30N 37°50' W 122°22'4 7.0
2017-Dec-16 13:00N 37°53' W 122°24'2 4.8
2017-Dec-16 12:30N 37°54' W 122°22'1 1.9
2017-Dec-16 12:00N 37°55' W 122°22'1 1.8
2017-Dec-16 11:29N 37°54' W 122°22'0 0.0
2017-Dec-16 10:59N 37°54' W 122°22'0 0.0
2017-Dec-16 10:29N 37°54' W 122°22'0 0.0
2017-Dec-16 09:59N 37°54' W 122°22'0 0.0
2017-Dec-16 09:29N 37°54' W 122°22'0 0.0
2017-Dec-16 08:59N 37°54' W 122°22'0 0.0
2017-Dec-16 08:29N 37°54' W 122°22'0 0.0
2017-Dec-16 07:59N 37°54' W 122°22'0 0.0
2017-Dec-16 07:29N 37°54' W 122°22'1 2.5
2017-Dec-16 07:01N 37°54' W 122°24'5 9.8
2017-Dec-16 06:31N 37°50' W 122°22'1 1.3
2017-Dec-16 06:00N 37°49' W 122°22'2 4.3
2017-Dec-16 05:31N 37°51' W 122°23'2 4.7
2017-Dec-16 05:00N 37°53' W 122°24'2 3.3
2017-Dec-16 04:30N 37°54' W 122°23'1 1.8
2017-Dec-16 04:00N 37°54' W 122°22'1 1.9
2017-Dec-16 03:30N 37°55' W 122°22'0 0.4
2017-Dec-16 03:00N 37°55' W 122°22'1 1.5
2017-Dec-16 02:28N 37°54' W 122°22'0 0.0
2017-Dec-16 01:58N 37°54' W 122°22'0 0.0
2017-Dec-16 01:25N 37°54' W 122°22'0 0.0
2017-Dec-16 00:59N 37°54' W 122°22'0 0.0
2017-Dec-16 00:28N 37°54' W 122°22'0 0.0
2017-Dec-15 23:58N 37°54' W 122°22'0 0.0
2017-Dec-15 23:25N 37°54' W 122°22'0 0.1
2017-Dec-15 22:58N 37°54' W 122°22'1 1.1
2017-Dec-15 22:31N 37°54' W 122°22'0 0.2
2017-Dec-15 22:00N 37°54' W 122°22'0 0.0
2017-Dec-15 21:30N 37°54' W 122°22'0 0.0
2017-Dec-15 21:01N 37°54' W 122°22'0 1.0
2017-Dec-15 20:30N 37°54' W 122°22'1 1.1
2017-Dec-15 20:00N 37°55' W 122°22'0 0.2
2017-Dec-15 19:30N 37°54' W 122°22'0 0.0
2017-Dec-15 19:00N 37°54' W 122°22'0 0.0
2017-Dec-15 18:30N 37°54' W 122°22'0 0.0
2017-Dec-15 18:00N 37°54' W 122°22'0 0.0
2017-Dec-15 17:30N 37°54' W 122°22'0 0.3
2017-Dec-15 17:00N 37°54' W 122°22'1 1.0
2017-Dec-15 16:28N 37°54' W 122°22'0 0.0
2017-Dec-15 15:55N 37°54' W 122°22'0 0.0
2017-Dec-15 15:28N 37°54' W 122°22'0 0.0
2017-Dec-15 14:58N 37°54' W 122°22'0 0.0
2017-Dec-15 14:28N 37°54' W 122°22'0 0.0
2017-Dec-15 13:58N 37°54' W 122°22'1 2.1
2017-Dec-15 13:31N 37°55' W 122°22'1 1.9
2017-Dec-15 13:00N 37°54' W 122°22'0 0.0
2017-Dec-15 12:30N 37°54' W 122°22'0 0.0
2017-Dec-15 12:00N 37°54' W 122°22'0 0.0
2017-Dec-15 11:30N 37°54' W 122°22'0 0.0
2017-Dec-15 11:00N 37°54' W 122°22'0 0.0
2017-Dec-15 10:30N 37°54' W 122°22'0 0.0
2017-Dec-15 10:00N 37°54' W 122°22'0 0.0
2017-Dec-15 09:30N 37°54' W 122°22'0 0.0
2017-Dec-15 09:01N 37°54' W 122°22'1 1.3
2017-Dec-15 08:30N 37°55' W 122°22'0 0.4
2017-Dec-15 08:00N 37°55' W 122°22'2 3.5
2017-Dec-15 07:31N 37°54' W 122°24'1 2.4
2017-Dec-15 07:00N 37°55' W 122°25'2 3.2
2017-Dec-15 06:31N 37°54' W 122°23'1 1.7
2017-Dec-15 06:00N 37°54' W 122°22'0 0.0
2017-Dec-15 05:30N 37°54' W 122°22'0 0.0
2017-Dec-15 05:01N 37°54' W 122°22'0 0.0
2017-Dec-15 04:30N 37°54' W 122°22'0 0.0
2017-Dec-15 04:00N 37°54' W 122°22'0 0.0
2017-Dec-15 02:31N 37°54' W 122°22'0 0.0
2017-Dec-15 01:01N 37°54' W 122°22'0 0.0
2017-Dec-15 00:30N 37°54' W 122°22'0 0.0
2017-Dec-14 18:30N 37°54' W 122°22'0 0.0
2017-Dec-14 18:00N 37°54' W 122°22'0 0.0
2017-Dec-14 17:30N 37°54' W 122°22'0 0.0
2017-Dec-14 16:57N 37°54' W 122°22'0 0.0
2017-Dec-14 16:27N 37°54' W 122°22'0 0.0
2017-Dec-14 16:00N 37°54' W 122°22'2 2.3
2017-Dec-14 15:01N 37°52' W 122°24'3 6.1
2017-Dec-14 14:30N 37°50' W 122°22'2 4.2
2017-Dec-14 14:00N 37°49' W 122°20'0 0.3
2017-Dec-14 13:30N 37°49' W 122°20'0 0.0
2017-Dec-14 13:00N 37°49' W 122°20'0 0.0
2017-Dec-14 12:30N 37°49' W 122°20'0 0.0
2017-Dec-14 12:00N 37°49' W 122°20'0 0.0
2017-Dec-14 11:30N 37°49' W 122°20'0 0.0
2017-Dec-14 11:00N 37°49' W 122°20'0 0.0
2017-Dec-14 10:30N 37°49' W 122°20'0 0.0
2017-Dec-14 10:00N 37°49' W 122°20'0 0.0
2017-Dec-14 09:30N 37°49' W 122°20'0 0.0
2017-Dec-14 09:00N 37°49' W 122°20'0 0.0
2017-Dec-14 08:30N 37°49' W 122°20'0 0.0
2017-Dec-14 08:00N 37°49' W 122°20'0 0.0
2017-Dec-14 07:30N 37°49' W 122°20'2 4.1
2017-Dec-14 07:00N 37°50' W 122°22'4 8.9
2017-Dec-14 06:30N 37°54' W 122°24'2 3.4
2017-Dec-14 06:00N 37°54' W 122°22'2 3.9
2017-Dec-14 05:30N 37°53' W 122°24'4 7.6
2017-Dec-14 05:00N 37°49' W 122°23'3 6.6
2017-Dec-14 04:30N 37°46' W 122°21'1 2.2
2017-Dec-14 04:01N 37°45' W 122°21'0 0.0
2017-Dec-14 03:30N 37°45' W 122°21'0 0.0
2017-Dec-14 02:58N 37°45' W 122°21'0 0.0
2017-Dec-14 02:28N 37°45' W 122°21'0 0.0
2017-Dec-14 01:58N 37°45' W 122°21'0 0.0
2017-Dec-14 01:28N 37°45' W 122°21'0 0.0
2017-Dec-14 00:58N 37°45' W 122°21'0 0.0
2017-Dec-14 00:28N 37°45' W 122°21'0 0.2
2017-Dec-13 23:58N 37°46' W 122°21'0 0.2
2017-Dec-13 23:28N 37°46' W 122°21'0 0.0
2017-Dec-13 22:59N 37°46' W 122°21'1 2.0
2017-Dec-13 22:30N 37°47' W 122°21'2 3.8
2017-Dec-13 22:01N 37°48' W 122°19'1 1.6
2017-Dec-13 21:29N 37°48' W 122°18'0 0.0
2017-Dec-13 20:59N 37°48' W 122°18'0 0.0
2017-Dec-13 20:29N 37°48' W 122°18'0 0.0
2017-Dec-13 19:59N 37°48' W 122°18'0 0.0
2017-Dec-13 19:29N 37°48' W 122°18'0 0.1
2017-Dec-13 18:59N 37°48' W 122°18'0 0.1
2017-Dec-13 18:29N 37°48' W 122°18'0 0.0
2017-Dec-13 17:59N 37°48' W 122°18'0 0.4
2017-Dec-13 17:31N 37°48' W 122°18'3 5.9
2017-Dec-13 17:00N 37°49' W 122°21'3 6.1
2017-Dec-13 16:31N 37°52' W 122°23'3 5.2
2017-Dec-13 16:00N 37°54' W 122°24'2 4.2
2017-Dec-13 15:30N 37°55' W 122°22'0 0.0
2017-Dec-13 15:00N 37°55' W 122°22'1 1.6
2017-Dec-13 14:30N 37°54' W 122°22'0 0.0
2017-Dec-13 14:00N 37°54' W 122°22'0 0.0
2017-Dec-13 13:27N 37°54' W 122°22'0 0.0
2017-Dec-13 13:00N 37°54' W 122°22'0 0.0
2017-Dec-13 12:30N 37°54' W 122°22'0 0.0
2017-Dec-13 12:00N 37°54' W 122°22'0 0.0
2017-Dec-13 11:30N 37°54' W 122°22'0 0.0
2017-Dec-13 11:00N 37°54' W 122°22'0 0.0
2017-Dec-13 10:30N 37°54' W 122°22'0 0.0
2017-Dec-13 10:00N 37°54' W 122°22'0 0.0
2017-Dec-13 09:30N 37°54' W 122°22'0 0.0
2017-Dec-13 09:00N 37°54' W 122°22'0 0.0
2017-Dec-13 08:31N 37°54' W 122°22'0 0.0
2017-Dec-13 08:01N 37°54' W 122°22'0 0.0
2017-Dec-13 07:30N 37°54' W 122°22'0 0.0
2017-Dec-13 07:00N 37°54' W 122°22'0 0.0
2017-Dec-13 06:30N 37°54' W 122°22'0 0.0
2017-Dec-13 06:00N 37°54' W 122°22'0 0.0
2017-Dec-13 05:30N 37°54' W 122°22'0 0.0
2017-Dec-13 05:00N 37°54' W 122°22'0 0.0
2017-Dec-13 04:30N 37°54' W 122°22'0 0.0
2017-Dec-13 04:00N 37°54' W 122°22'1 1.6
2017-Dec-13 03:30N 37°55' W 122°22'1 1.7
2017-Dec-13 03:00N 37°54' W 122°22'0 0.0
2017-Dec-13 02:30N 37°54' W 122°22'0 0.0
2017-Dec-13 02:00N 37°54' W 122°22'1 1.1
2017-Dec-13 01:30N 37°55' W 122°22'1 1.3
2017-Dec-13 00:54N 37°55' W 122°22'0 0.1
2017-Dec-13 00:30N 37°55' W 122°22'1 1.6
2017-Dec-12 23:58N 37°54' W 122°22'0 0.0
2017-Dec-12 23:22N 37°54' W 122°22'0 0.2
2017-Dec-12 23:00N 37°54' W 122°22'2 3.4
2017-Dec-12 22:30N 37°54' W 122°24'3 5.4
2017-Dec-12 22:00N 37°52' W 122°24'3 6.8
2017-Dec-12 21:30N 37°49' W 122°21'1 2.8
2017-Dec-12 20:59N 37°49' W 122°19'0 0.0
2017-Dec-12 20:31N 37°49' W 122°19'0 0.3
2017-Dec-12 20:00N 37°49' W 122°19'0 0.3
2017-Dec-12 19:30N 37°49' W 122°19'0 0.0
2017-Dec-12 19:00N 37°49' W 122°19'0 0.0
2017-Dec-12 18:30N 37°49' W 122°19'0 0.0
2017-Dec-12 18:00N 37°49' W 122°19'0 0.0
2017-Dec-12 17:30N 37°49' W 122°19'0 0.0
2017-Dec-12 16:54N 37°49' W 122°19'0 0.0
2017-Dec-12 16:30N 37°49' W 122°19'0 0.0
2017-Dec-12 16:00N 37°49' W 122°19'0 0.0
2017-Dec-12 15:30N 37°49' W 122°19'0 0.0
2017-Dec-12 15:00N 37°49' W 122°19'1 1.9
2017-Dec-12 14:31N 37°48' W 122°21'1 2.2
2017-Dec-12 14:00N 37°49' W 122°22'0 0.0
2017-Dec-12 13:30N 37°49' W 122°22'0 0.0
2017-Dec-12 13:00N 37°49' W 122°22'0 0.0
2017-Dec-12 12:30N 37°49' W 122°22'0 0.0
2017-Dec-12 12:00N 37°49' W 122°22'0 0.0
2017-Dec-12 11:30N 37°49' W 122°22'0 0.0
2017-Dec-12 11:00N 37°49' W 122°22'0 0.0
2017-Dec-12 10:30N 37°49' W 122°22'0 0.0
2017-Dec-12 10:00N 37°49' W 122°22'0 0.0
2017-Dec-12 09:27N 37°49' W 122°22'0 0.0
2017-Dec-12 09:00N 37°49' W 122°22'0 0.0
2017-Dec-12 08:27N 37°49' W 122°22'0 0.0
2017-Dec-12 08:00N 37°49' W 122°22'0 0.0
2017-Dec-12 07:30N 37°49' W 122°22'0 0.0
2017-Dec-12 07:00N 37°49' W 122°22'0 0.0
2017-Dec-12 06:30N 37°49' W 122°22'0 0.0
2017-Dec-12 06:00N 37°49' W 122°22'0 0.0
2017-Dec-12 05:30N 37°49' W 122°22'0 0.0
2017-Dec-12 05:00N 37°49' W 122°22'0 0.0
2017-Dec-12 04:30N 37°49' W 122°22'0 0.0
2017-Dec-12 04:00N 37°49' W 122°22'0 0.0
2017-Dec-12 03:30N 37°49' W 122°22'0 0.0
2017-Dec-12 03:00N 37°49' W 122°22'0 0.0
2017-Dec-12 02:30N 37°49' W 122°22'0 0.0
2017-Dec-12 02:00N 37°49' W 122°22'0 0.0
2017-Dec-12 01:30N 37°49' W 122°22'0 0.0
2017-Dec-12 00:57N 37°49' W 122°22'0 0.0
2017-Dec-12 00:30N 37°49' W 122°22'0 0.0
2017-Dec-12 00:00N 37°49' W 122°22'0 0.0
2017-Dec-11 23:30N 37°49' W 122°22'0 0.0
2017-Dec-11 23:00N 37°49' W 122°22'0 0.0
2017-Dec-11 22:30N 37°49' W 122°22'0 0.0
2017-Dec-11 22:00N 37°49' W 122°22'0 0.0
2017-Dec-11 21:21N 37°49' W 122°22'0 0.0
2017-Dec-11 21:00N 37°49' W 122°22'0 0.0
2017-Dec-11 20:30N 37°49' W 122°22'0 0.0
2017-Dec-11 20:00N 37°49' W 122°22'0 0.0
2017-Dec-11 19:30N 37°49' W 122°22'0 0.0
2017-Dec-11 19:00N 37°49' W 122°22'0 0.0
2017-Dec-11 18:30N 37°49' W 122°22'0 0.0
2017-Dec-11 18:00N 37°49' W 122°22'0 0.0
2017-Dec-11 17:30N 37°49' W 122°22'0 0.0
2017-Dec-11 17:00N 37°49' W 122°22'0 0.0
2017-Dec-11 16:30N 37°49' W 122°22'0 0.0
2017-Dec-11 16:00N 37°49' W 122°22'0 0.0
2017-Dec-11 15:30N 37°49' W 122°22'0 0.0
2017-Dec-11 15:00N 37°49' W 122°22'0 0.0
2017-Dec-11 14:30N 37°49' W 122°22'0 0.0
2017-Dec-11 14:00N 37°49' W 122°22'0 0.0
2017-Dec-11 13:30N 37°49' W 122°22'0 0.0
2017-Dec-11 13:00N 37°49' W 122°22'0 0.0
2017-Dec-11 12:30N 37°49' W 122°22'0 0.0
2017-Dec-11 12:00N 37°49' W 122°22'0 0.1
2017-Dec-11 11:31N 37°49' W 122°22'3 5.1
2017-Dec-11 11:01N 37°51' W 122°23'3 5.4
2017-Dec-11 10:31N 37°54' W 122°24'2 4.1
2017-Dec-11 10:01N 37°54' W 122°22'0 0.2
2017-Dec-11 09:30N 37°54' W 122°22'0 0.0
2017-Dec-11 09:00N 37°54' W 122°22'0 0.0
2017-Dec-11 08:30N 37°54' W 122°22'0 0.0
2017-Dec-11 08:00N 37°54' W 122°22'0 0.0
2017-Dec-11 07:30N 37°54' W 122°22'0 0.0
2017-Dec-11 07:00N 37°54' W 122°22'0 0.0
2017-Dec-11 06:30N 37°54' W 122°22'0 0.0
2017-Dec-11 06:01N 37°54' W 122°22'1 1.7
2017-Dec-11 05:31N 37°55' W 122°22'1 1.7
2017-Dec-11 05:00N 37°54' W 122°22'1 1.0
2017-Dec-11 04:29N 37°54' W 122°22'0 0.0
2017-Dec-11 03:59N 37°54' W 122°22'0 0.0
2017-Dec-11 03:29N 37°54' W 122°22'0 0.0
2017-Dec-11 02:59N 37°54' W 122°22'0 0.0
2017-Dec-11 02:29N 37°54' W 122°22'0 0.0
2017-Dec-11 01:59N 37°54' W 122°22'0 0.0
2017-Dec-11 01:29N 37°54' W 122°22'0 0.0
2017-Dec-11 00:59N 37°54' W 122°22'0 0.0
2017-Dec-11 00:29N 37°54' W 122°22'0 0.0
2017-Dec-10 23:59N 37°54' W 122°22'0 0.0
2017-Dec-10 23:29N 37°54' W 122°22'0 0.0
2017-Dec-10 22:59N 37°54' W 122°22'0 0.0
2017-Dec-10 22:23N 37°54' W 122°22'0 0.0
2017-Dec-10 22:00N 37°54' W 122°22'1 1.8
2017-Dec-10 21:30N 37°55' W 122°22'1 1.7
2017-Dec-10 21:00N 37°54' W 122°22'0 0.0
2017-Dec-10 20:30N 37°54' W 122°22'0 0.0
2017-Dec-10 20:00N 37°54' W 122°22'0 0.0
2017-Dec-10 19:30N 37°54' W 122°22'1 1.8
2017-Dec-10 19:00N 37°55' W 122°22'0 0.8
2017-Dec-10 18:30N 37°55' W 122°22'2 4.3
2017-Dec-10 18:00N 37°54' W 122°24'3 6.4
2017-Dec-10 17:30N 37°51' W 122°23'4 7.9
2017-Dec-10 17:00N 37°48' W 122°20'1 1.8
2017-Dec-10 16:29N 37°48' W 122°19'0 0.0
2017-Dec-10 15:59N 37°48' W 122°19'0 0.0
2017-Dec-10 15:29N 37°48' W 122°19'0 0.0
2017-Dec-10 14:59N 37°48' W 122°19'0 0.0
2017-Dec-10 14:29N 37°48' W 122°19'0 0.0
2017-Dec-10 13:59N 37°48' W 122°19'0 0.0
2017-Dec-10 13:29N 37°48' W 122°19'0 0.0
2017-Dec-10 12:59N 37°48' W 122°19'0 0.0
2017-Dec-10 12:29N 37°48' W 122°19'0 0.0
2017-Dec-10 11:59N 37°48' W 122°19'0 0.0
2017-Dec-10 11:29N 37°48' W 122°19'0 0.0
2017-Dec-10 10:59N 37°48' W 122°19'0 0.0
2017-Dec-10 10:29N 37°48' W 122°19'0 0.0
2017-Dec-10 09:59N 37°48' W 122°19'0 0.0
2017-Dec-10 09:29N 37°48' W 122°19'0 0.4
2017-Dec-10 09:01N 37°48' W 122°19'3 5.3
2017-Dec-10 08:30N 37°49' W 122°22'0 0.0
2017-Dec-10 08:00N 37°49' W 122°22'0 0.0
2017-Dec-10 07:27N 37°49' W 122°22'0 0.0
2017-Dec-10 07:00N 37°49' W 122°22'0 0.0
2017-Dec-10 06:24N 37°49' W 122°22'0 0.0
2017-Dec-10 06:00N 37°49' W 122°22'0 0.0
2017-Dec-10 05:24N 37°49' W 122°22'0 0.0
2017-Dec-10 05:00N 37°49' W 122°22'0 0.0
2017-Dec-10 04:30N 37°49' W 122°22'0 0.0
2017-Dec-10 03:57N 37°49' W 122°22'0 0.0
2017-Dec-10 03:30N 37°49' W 122°22'0 0.0
2017-Dec-10 02:57N 37°49' W 122°22'0 0.0
2017-Dec-10 02:27N 37°49' W 122°22'0 0.0
2017-Dec-10 01:57N 37°49' W 122°22'0 0.0
2017-Dec-10 01:30N 37°49' W 122°22'0 0.0
2017-Dec-10 01:00N 37°49' W 122°22'0 0.0
2017-Dec-10 00:30N 37°49' W 122°22'0 0.0
2017-Dec-09 23:57N 37°49' W 122°22'0 0.0
2017-Dec-09 23:27N 37°49' W 122°22'0 0.0
2017-Dec-09 23:00N 37°49' W 122°22'1 2.8
2017-Dec-09 22:30N 37°51' W 122°22'3 6.2
2017-Dec-09 22:00N 37°53' W 122°24'2 4.5
2017-Dec-09 21:30N 37°54' W 122°22'1 2.0
2017-Dec-09 21:00N 37°55' W 122°22'1 1.7
2017-Dec-09 20:29N 37°54' W 122°22'0 0.0
2017-Dec-09 19:59N 37°54' W 122°22'0 0.0
2017-Dec-09 19:29N 37°54' W 122°22'0 0.0
2017-Dec-09 18:59N 37°54' W 122°22'0 0.0
2017-Dec-09 18:29N 37°54' W 122°22'0 0.0
2017-Dec-09 17:59N 37°54' W 122°22'0 0.0
2017-Dec-09 17:29N 37°54' W 122°22'0 0.7
2017-Dec-09 17:01N 37°54' W 122°22'1 2.0
2017-Dec-09 16:30N 37°55' W 122°22'1 2.1
2017-Dec-09 16:00N 37°54' W 122°22'2 4.5
2017-Dec-09 15:31N 37°53' W 122°24'3 6.7
2017-Dec-09 15:01N 37°50' W 122°22'1 1.4
2017-Dec-09 14:29N 37°49' W 122°22'0 0.0
2017-Dec-09 13:59N 37°49' W 122°22'1 1.9
2017-Dec-09 13:30N 37°50' W 122°22'4 8.8
2017-Dec-09 13:01N 37°54' W 122°24'1 2.8
2017-Dec-09 12:30N 37°54' W 122°22'0 0.0
2017-Dec-09 11:55N 37°54' W 122°22'0 0.0
2017-Dec-09 11:28N 37°54' W 122°22'0 0.0
2017-Dec-09 10:58N 37°54' W 122°22'0 0.0
2017-Dec-09 10:28N 37°54' W 122°22'0 0.0
2017-Dec-09 09:58N 37°54' W 122°22'0 0.0
2017-Dec-09 09:28N 37°54' W 122°22'0 0.0
2017-Dec-09 08:58N 37°54' W 122°22'0 0.0
2017-Dec-09 08:28N 37°54' W 122°22'0 0.0
2017-Dec-09 07:58N 37°54' W 122°22'0 0.0
2017-Dec-09 07:28N 37°54' W 122°22'0 0.0
2017-Dec-09 06:58N 37°54' W 122°22'0 0.0
2017-Dec-09 06:28N 37°54' W 122°22'0 0.0
2017-Dec-09 05:58N 37°54' W 122°22'0 0.0
2017-Dec-09 05:28N 37°54' W 122°22'0 0.0
2017-Dec-09 04:58N 37°54' W 122°22'0 0.0
2017-Dec-09 04:28N 37°54' W 122°22'0 0.0
2017-Dec-09 03:55N 37°54' W 122°22'0 0.0
2017-Dec-09 03:28N 37°54' W 122°22'0 0.0
2017-Dec-09 02:58N 37°54' W 122°22'0 0.0
2017-Dec-09 02:28N 37°54' W 122°22'0 0.0
2017-Dec-09 01:58N 37°54' W 122°22'0 0.0
2017-Dec-09 01:28N 37°54' W 122°22'0 0.0
2017-Dec-09 00:58N 37°54' W 122°22'0 0.0
2017-Dec-09 00:28N 37°54' W 122°22'0 0.0
2017-Dec-08 23:58N 37°54' W 122°22'0 0.0
2017-Dec-08 23:29N 37°54' W 122°22'2 5.1
2017-Dec-08 23:01N 37°52' W 122°24'3 6.2
2017-Dec-08 22:28N 37°49' W 122°22'0 0.0
2017-Dec-08 21:55N 37°49' W 122°22'0 0.0
2017-Dec-08 21:28N 37°49' W 122°22'0 0.0
2017-Dec-08 20:55N 37°49' W 122°22'0 0.0
2017-Dec-08 20:30N 37°49' W 122°22'1 2.4
2017-Dec-08 20:00N 37°49' W 122°20'0 0.9
2017-Dec-08 19:28N 37°49' W 122°20'0 0.0
2017-Dec-08 18:58N 37°49' W 122°20'0 0.0
2017-Dec-08 18:28N 37°49' W 122°20'0 0.0
2017-Dec-08 17:58N 37°49' W 122°20'0 0.0
2017-Dec-08 17:28N 37°49' W 122°20'0 0.0
2017-Dec-08 16:55N 37°49' W 122°20'0 0.0
2017-Dec-08 16:28N 37°49' W 122°20'0 0.0
2017-Dec-08 15:58N 37°49' W 122°20'0 0.0
2017-Dec-08 15:28N 37°49' W 122°20'0 0.0
2017-Dec-08 15:01N 37°49' W 122°20'2 3.1
2017-Dec-08 14:31N 37°49' W 122°22'0 0.0
2017-Dec-08 13:58N 37°49' W 122°22'0 0.0
2017-Dec-08 13:28N 37°49' W 122°22'0 0.0
2017-Dec-08 12:58N 37°49' W 122°22'0 0.0
2017-Dec-08 12:28N 37°49' W 122°22'0 0.0
2017-Dec-08 11:58N 37°49' W 122°22'0 0.0
2017-Dec-08 11:28N 37°49' W 122°22'0 0.0
2017-Dec-08 10:58N 37°49' W 122°22'0 0.0
2017-Dec-08 10:28N 37°49' W 122°22'0 0.0
2017-Dec-08 09:58N 37°49' W 122°22'0 0.0
2017-Dec-08 09:28N 37°49' W 122°22'0 0.0
2017-Dec-08 08:58N 37°49' W 122°22'0 0.0
2017-Dec-08 08:28N 37°49' W 122°22'0 0.0
2017-Dec-08 07:58N 37°49' W 122°22'0 0.0
2017-Dec-08 07:28N 37°49' W 122°22'0 0.0
2017-Dec-08 06:58N 37°49' W 122°22'0 0.0
2017-Dec-08 06:28N 37°49' W 122°22'0 0.0
2017-Dec-08 05:58N 37°49' W 122°22'0 0.0
2017-Dec-08 05:28N 37°49' W 122°22'0 0.0
2017-Dec-08 04:58N 37°49' W 122°22'0 0.0
2017-Dec-08 04:28N 37°49' W 122°22'0 0.0
2017-Dec-08 03:58N 37°49' W 122°22'0 0.0
2017-Dec-08 03:28N 37°49' W 122°22'0 0.0
2017-Dec-08 02:58N 37°49' W 122°22'0 0.0
2017-Dec-08 02:28N 37°49' W 122°22'0 0.0
2017-Dec-08 01:58N 37°49' W 122°22'0 0.0
2017-Dec-08 01:28N 37°49' W 122°22'0 0.0
2017-Dec-08 00:58N 37°49' W 122°22'0 0.0
2017-Dec-08 00:28N 37°49' W 122°22'0 0.0
2017-Dec-07 23:58N 37°49' W 122°22'0 0.0
2017-Dec-07 23:28N 37°49' W 122°22'0 0.0
2017-Dec-07 22:58N 37°49' W 122°22'0 0.0
2017-Dec-07 22:28N 37°49' W 122°22'1 1.3
2017-Dec-07 22:00N 37°49' W 122°21'1 2.2
2017-Dec-07 21:30N 37°49' W 122°20'0 0.1
2017-Dec-07 20:57N 37°49' W 122°20'0 0.0
2017-Dec-07 20:30N 37°49' W 122°20'0 0.1
2017-Dec-07 20:00N 37°49' W 122°20'0 0.0
2017-Dec-07 19:30N 37°49' W 122°20'0 0.0
2017-Dec-07 19:00N 37°49' W 122°20'0 0.0
2017-Dec-07 18:30N 37°49' W 122°20'0 0.0
2017-Dec-07 17:57N 37°49' W 122°20'0 0.0
2017-Dec-07 17:30N 37°49' W 122°20'  

Dump ship's entire track history